American Lake, Washington
Current Conditions -  °F | °C
As of 7:08 PM on Saturday 25 Oct 2014 (Local Time) from KGRF Reporting Station
Heavy Rain Heavy Rain  
Wind Chill: 55°   Ceiling: 1000
Heat Index: 55°   Visibility: 10mi
Dew Point: 55°   Wind: 18mph
Humidity: 100%   Direction: 190°S
Pressure: 29.41"   Gusts: 32mph
Location:  47.1451°N, 122.578°W
Report Text: KGRF 260208Z AUTO 19016G28KT 10SM +RA BKN010 BKN017 OVC046 13/13 A2941 RMK AO2 CIG 009V013 PRESRR
Loading
Personal Weather Stations






























Interactive Weather Map
Tropical Storm Tracking
New forecast layout! Learn more

10-Day Weather Forecast

Advertisements
Track Severe Weather on mobile